< Typhoon 201707 2017 Season Typhoon 201709 >
Typhoon 201708 (SONCA)
General InformationDetailed Track InformationTrack Information on Google MapsForecast History on Google MapsAccess Analytics MapList of All Images || NewsDisaster Info.WeblogTrackbackTyphoon FrontTwiphoonTyphoon Now!Typhoon ImaginationJMA Disaster Info. XMLResourceGoogle EarthGE AnimationAtom FeedGeoJSON
Detalied Best Track Wind (Time Zone = UTC)
Year Month Day Hour Lat. Long. Wind (kt) Gust (kt) Direc. of Major Storm Axis Radius of Major Storm Axis (nm) Radius of Minor Storm Axis (nm) Direc. of Major Gale Axis Radius of Major Gale Axis (nm) Radius of Minor Gale Axis (nm) Image
2017 7 21 00 17.5 114.7 0 0 - - - - - - Image
2017 7 21 06 17.8 113.7 0 0 - - - - - - Image
2017 7 21 12 18.0 113.1 0 0 - - - - - - Image
2017 7 21 18 18.0 112.7 0 0 - - - - - - Image
2017 7 22 00 17.9 112.4 0 0 - - - - - - Image
2017 7 22 06 17.9 112.1 0 0 - - - - - - Image
2017 7 22 12 17.8 111.9 0 0 - - - - - - Image
2017 7 22 18 17.7 111.7 0 0 - - - - - - Image
2017 7 23 00 17.6 111.6 35 0 - - - symmetric 30 30 Image
2017 7 23 06 17.5 111.6 35 0 - - - symmetric 30 30 Image
2017 7 23 12 17.3 111.6 35 0 - - - symmetric 30 30 Image
2017 7 23 18 17.2 111.6 35 0 - - - symmetric 30 30 Image
2017 7 24 00 17.1 111.2 35 0 - - - symmetric 30 30 Image
2017 7 24 06 17.0 110.8 35 0 - - - symmetric 30 30 Image
2017 7 24 12 16.9 110.3 35 0 - - - symmetric 30 30 Image
2017 7 24 18 16.9 109.5 35 0 - - - symmetric 30 30 Image
2017 7 25 00 17.1 108.7 35 0 - - - symmetric 30 30 Image
2017 7 25 06 17.1 107.5 35 0 - - - symmetric 30 30 Image
2017 7 25 12 16.8 106.5 0 0 - - - - - - Image
2017 7 25 18 16.2 105.2 0 0 - - - - - - Image
2017 7 26 00 16.0 104.1 0 0 - - - - - - Image
2017 7 26 06 16.1 103.7 0 0 - - - - - - Image
2017 7 26 12 16.2 103.3 0 0 - - - - - - Image
2017 7 26 18 16.2 103.0 0 0 - - - - - - Image
2017 7 27 00 16.4 103.2 0 0 - - - - - - Image
2017 7 27 06 16.6 103.5 0 0 - - - - - - Image
2017 7 27 12 16.9 103.7 0 0 - - - - - - Image
2017 7 27 18 17.2 104.0 0 0 - - - - - - Image
2017 7 28 00 17.4 104.1 0 0 - - - - - - Image
2017 7 28 06 17.6 104.2 0 0 - - - - - - Image
2017 7 28 12 17.6 103.8 0 0 - - - - - - Image
2017 7 28 18 17.6 103.6 0 0 - - - - - - Image
2017 7 29 00 17.7 103.6 0 0 - - - - - - Image
2017 7 29 06 17.9 103.8 0 0 - - - - - - Image
2017 7 29 12 18.0 103.6 0 0 - - - - - - Image
Japan Meteorological Agency Best Track Data | Correction Date : 2017-09-05
< Typhoon 201707 2017 Season Typhoon 201709 >

Help